Time;durP1;ratioP1;P1;durP2;ratioP2;P2;SDS_P1;SDS_P2;PMS_P1;PMS_P2;Temp;Humidity;BMP_temperature;BMP_pressure;BME280_temperature;BME280_humidity;BME280_pressure;Samples;Min_cycle;Max_cycle;Signal;HPM_P1;HPM_P2
2021/12/30 00:00:44;;;;;;;27.60;13.30;;;6.30;99.90;;;;;;5057860;28;20218;-47
2021/12/30 00:03:11;;;;;;;32.93;14.83;;;6.30;99.90;;;;;;5062077;28;20233;-46
2021/12/30 00:05:39;;;;;;;26.70;13.33;;;6.30;99.90;;;;;;5063414;28;20275;-48
2021/12/30 00:08:07;;;;;;;30.27;13.80;;;6.30;99.90;;;;;;5062821;28;20199;-49
2021/12/30 00:10:35;;;;;;;31.07;14.43;;;6.30;99.90;;;;;;5062049;28;20894;-51
2021/12/30 00:13:02;;;;;;;29.27;13.57;;;6.30;99.90;;;;;;5049436;28;20223;-47
2021/12/30 00:15:30;;;;;;;34.70;14.57;;;6.40;99.90;;;;;;5060108;28;20194;-46
2021/12/30 00:17:57;;;;;;;27.83;14.13;;;6.40;99.90;;;;;;5058819;28;20198;-45
2021/12/30 00:20:24;;;;;;;29.43;15.23;;;6.40;99.90;;;;;;5059019;28;20201;-48
2021/12/30 00:22:50;;;;;;;32.77;13.10;;;6.40;99.90;;;;;;5064120;28;20715;-45
2021/12/30 00:25:17;;;;;;;30.20;14.40;;;6.50;99.90;;;;;;5060298;28;20209;-47
2021/12/30 00:27:44;;;;;;;28.00;12.80;;;6.50;99.90;;;;;;5063538;28;20194;-47
2021/12/30 00:30:13;;;;;;;27.73;13.53;;;6.50;99.90;;;;;;5047151;28;20203;-47
2021/12/30 00:32:41;;;;;;;29.37;13.77;;;6.50;99.90;;;;;;5041844;28;20305;-49
2021/12/30 00:35:10;;;;;;;30.13;14.17;;;6.50;99.90;;;;;;5058513;28;20710;-48
2021/12/30 00:37:36;;;;;;;32.97;14.87;;;6.60;99.90;;;;;;5042886;28;20190;-50
2021/12/30 00:40:04;;;;;;;29.87;14.40;;;6.60;99.90;;;;;;5061589;28;20202;-46
2021/12/30 00:42:31;;;;;;;23.27;12.53;;;6.60;99.90;;;;;;5060175;28;20270;-48
2021/12/30 00:44:58;;;;;;;25.60;13.07;;;6.60;99.90;;;;;;5049457;28;20206;-48
2021/12/30 00:47:24;;;;;;;34.83;14.33;;;6.70;99.90;;;;;;5053554;28;20883;-47
2021/12/30 00:49:52;;;;;;;35.80;14.97;;;6.80;99.90;;;;;;5063464;28;20199;-45
2021/12/30 00:52:19;;;;;;;36.60;15.00;;;6.90;99.90;;;;;;5059701;28;20607;-51
2021/12/30 00:54:46;;;;;;;34.40;16.33;;;6.90;99.90;;;;;;5063230;28;20211;-46
2021/12/30 00:57:12;;;;;;;36.13;16.97;;;7.00;99.90;;;;;;5060795;28;20277;-45
2021/12/30 00:59:39;;;;;;;35.57;15.73;;;7.10;99.90;;;;;;5047856;28;20210;-47
2021/12/30 01:02:05;;;;;;;46.80;18.33;;;7.20;99.90;;;;;;5060893;28;20222;-48
2021/12/30 01:04:32;;;;;;;46.40;19.00;;;7.20;99.90;;;;;;5055485;28;20206;-48
2021/12/30 01:07:00;;;;;;;47.00;19.53;;;7.20;99.90;;;;;;5063412;28;20577;-46
2021/12/30 01:09:27;;;;;;;53.37;20.97;;;7.30;99.90;;;;;;5059815;28;20200;-45
2021/12/30 01:11:55;;;;;;;53.93;19.57;;;7.40;99.90;;;;;;5062661;28;20684;-47
2021/12/30 01:14:25;;;;;;;55.53;19.70;;;7.40;99.90;;;;;;5045064;28;20222;-48
2021/12/30 01:16:56;;;;;;;52.07;22.60;;;7.50;99.90;;;;;;5062249;28;20199;-46
2021/12/30 01:19:42;;;;;;;54.83;20.90;;;7.50;99.90;;;;;;5053474;28;20256;-46
2021/12/30 01:22:12;;;;;;;59.60;22.60;;;7.60;99.90;;;;;;5055316;28;20229;-50
2021/12/30 01:24:38;;;;;;;49.77;22.03;;;7.60;99.90;;;;;;5061492;28;20191;-48
2021/12/30 01:27:05;;;;;;;43.77;20.47;;;7.60;99.90;;;;;;5061570;28;20202;-49
2021/12/30 01:29:32;;;;;;;51.90;22.10;;;7.70;99.90;;;;;;5060648;28;20837;-47
2021/12/30 01:31:59;;;;;;;58.67;22.10;;;7.70;99.90;;;;;;5048802;28;20227;-49
2021/12/30 01:34:27;;;;;;;57.17;23.93;;;7.70;99.90;;;;;;5053081;28;20223;-45
2021/12/30 01:36:54;;;;;;;66.00;22.43;;;7.70;99.90;;;;;;5062803;28;20199;-49
2021/12/30 01:39:22;;;;;;;45.20;22.63;;;7.80;99.90;;;;;;5058571;28;20230;-46
2021/12/30 01:41:50;;;;;;;55.93;23.30;;;7.80;99.90;;;;;;5062531;28;20222;-45
2021/12/30 01:44:17;;;;;;;63.17;23.27;;;7.90;99.90;;;;;;5059348;28;20664;-50
2021/12/30 01:46:45;;;;;;;54.03;22.83;;;7.90;99.90;;;;;;5047576;28;20202;-46
2021/12/30 01:49:13;;;;;;;62.03;22.93;;;7.90;99.90;;;;;;5055103;28;20226;-48
2021/12/30 01:51:42;;;;;;;55.37;23.07;;;7.90;99.90;;;;;;5061507;28;20222;-46
2021/12/30 01:54:10;;;;;;;50.77;22.77;;;7.90;99.90;;;;;;5061033;28;20227;-49
2021/12/30 01:56:38;;;;;;;48.70;21.77;;;7.90;99.90;;;;;;5060580;28;20193;-47
2021/12/30 01:59:05;;;;;;;53.87;21.80;;;8.00;99.90;;;;;;5061810;28;20202;-47
2021/12/30 02:01:32;;;;;;;40.30;18.30;;;8.00;99.90;;;;;;5045865;28;20209;-47
2021/12/30 02:03:59;;;;;;;42.97;19.60;;;8.00;99.90;;;;;;5056912;28;20206;-46
2021/12/30 02:06:26;;;;;;;53.07;20.90;;;8.00;99.90;;;;;;5058571;28;20927;-45
2021/12/30 02:08:53;;;;;;;52.33;21.37;;;8.00;99.90;;;;;;5062413;28;20691;-48
2021/12/30 02:11:21;;;;;;;47.73;20.60;;;8.00;99.90;;;;;;5058362;28;20202;-49
2021/12/30 02:13:51;;;;;;;38.00;20.60;;;8.10;99.90;;;;;;5062221;28;20218;-48
2021/12/30 02:16:20;;;;;;;49.70;18.87;;;8.10;99.90;;;;;;5046602;28;20656;-45
2021/12/30 02:18:47;;;;;;;46.43;19.20;;;8.10;99.90;;;;;;5059059;28;20272;-44
2021/12/30 02:21:15;;;;;;;50.50;19.90;;;8.10;99.90;;;;;;5054576;28;20199;-46
2021/12/30 02:23:41;;;;;;;36.37;16.97;;;8.10;99.90;;;;;;5061780;28;20222;-48
2021/12/30 02:26:13;;;;;;;37.77;19.00;;;8.10;99.90;;;;;;5060457;28;20530;-45
2021/12/30 02:28:40;;;;;;;37.93;17.17;;;8.20;99.90;;;;;;5061463;28;20193;-47
2021/12/30 02:31:11;;;;;;;34.97;15.23;;;8.10;99.90;;;;;;5060600;28;20195;-45
2021/12/30 02:33:38;;;;;;;43.30;16.93;;;8.10;99.90;;;;;;5046507;28;20294;-46
2021/12/30 02:36:05;;;;;;;34.17;14.70;;;8.20;99.90;;;;;;5055358;28;20202;-46
2021/12/30 02:38:34;;;;;;;32.03;15.17;;;8.20;99.90;;;;;;5062701;28;20202;-46
2021/12/30 02:41:02;;;;;;;35.40;14.83;;;8.10;99.90;;;;;;5065495;28;20202;-47
2021/12/30 02:43:31;;;;;;;39.10;16.27;;;8.20;99.90;;;;;;5062543;28;20218;-49
2021/12/30 02:45:59;;;;;;;31.33;15.03;;;8.10;99.90;;;;;;5065866;28;20385;-47
2021/12/30 02:48:28;;;;;;;31.67;12.87;;;8.10;99.90;;;;;;5047632;28;20274;-49
2021/12/30 02:50:58;;;;;;;35.83;13.13;;;8.10;99.90;;;;;;5059983;28;20199;-45
2021/12/30 02:53:24;;;;;;;35.63;12.87;;;8.10;99.90;;;;;;5061317;28;20211;-48
2021/12/30 02:55:53;;;;;;;30.10;12.57;;;8.10;99.90;;;;;;5065662;28;20209;-45
2021/12/30 02:58:21;;;;;;;35.33;12.57;;;8.10;99.90;;;;;;5061610;28;20278;-49
2021/12/30 03:00:48;;;;;;;30.27;12.33;;;8.10;99.90;;;;;;5065661;28;20207;-47
2021/12/30 03:03:19;;;;;;;36.07;12.43;;;8.10;99.90;;;;;;5048322;28;20225;-51
2021/12/30 03:05:46;;;;;;;29.30;11.90;;;8.10;99.90;;;;;;5064941;28;20190;-50
2021/12/30 03:08:13;;;;;;;39.30;11.27;;;8.00;99.90;;;;;;5057613;28;20206;-47
2021/12/30 03:10:39;;;;;;;28.73;9.87;;;8.00;99.90;;;;;;5063921;28;20191;-45
2021/12/30 03:13:09;;;;;;;23.80;9.33;;;8.10;99.90;;;;;;5063988;28;20596;-49
2021/12/30 03:15:36;;;;;;;27.90;10.30;;;8.10;99.90;;;;;;5063411;28;20274;-48
2021/12/30 03:18:04;;;;;;;30.73;10.30;;;8.10;99.90;;;;;;5061976;28;20536;-49
2021/12/30 03:20:33;;;;;;;27.33;9.20;;;8.10;99.90;;;;;;5052875;28;20198;-46
2021/12/30 03:23:00;;;;;;;25.60;10.67;;;8.10;99.90;;;;;;5059233;28;20280;-48
2021/12/30 03:25:27;;;;;;;32.93;10.80;;;8.10;99.90;;;;;;5061597;28;20191;-48
2021/12/30 03:27:54;;;;;;;29.40;8.90;;;8.10;99.90;;;;;;5064833;28;20562;-47
2021/12/30 03:30:22;;;;;;;26.03;8.17;;;8.10;99.90;;;;;;5060994;28;20876;-50
2021/12/30 03:32:49;;;;;;;25.00;8.43;;;8.10;99.90;;;;;;5064809;28;20230;-46
2021/12/30 03:35:16;;;;;;;26.33;8.40;;;8.10;99.90;;;;;;5047290;28;20218;-49
2021/12/30 03:37:43;;;;;;;21.57;7.53;;;8.10;99.90;;;;;;5056226;28;20207;-47
2021/12/30 03:40:13;;;;;;;25.90;8.07;;;8.10;99.90;;;;;;5060393;28;20202;-48
2021/12/30 03:42:40;;;;;;;20.93;7.37;;;8.10;99.90;;;;;;5063607;28;20220;-45
2021/12/30 03:45:10;;;;;;;25.90;7.83;;;8.10;99.90;;;;;;5063275;28;20195;-47
2021/12/30 03:47:41;;;;;;;23.90;7.27;;;8.10;99.90;;;;;;5062904;28;20190;-48
2021/12/30 03:50:13;;;;;;;23.70;7.27;;;8.10;99.90;;;;;;5048778;28;20589;-49
2021/12/30 03:52:39;;;;;;;21.10;7.10;;;8.10;99.90;;;;;;5058403;28;20226;-48
2021/12/30 03:55:07;;;;;;;25.03;6.53;;;8.10;99.90;;;;;;5063412;28;20218;-47
2021/12/30 03:57:34;;;;;;;23.07;6.30;;;8.10;99.90;;;;;;5061997;28;20194;-46
2021/12/30 04:00:01;;;;;;;22.77;6.73;;;8.00;99.90;;;;;;5064706;28;20217;-48
2021/12/30 04:02:27;;;;;;;19.80;6.40;;;8.00;99.90;;;;;;5060723;28;20958;-47
2021/12/30 04:04:55;;;;;;;18.30;5.93;;;8.00;99.90;;;;;;5050408;28;20195;-49
2021/12/30 04:07:22;;;;;;;26.40;6.80;;;8.00;99.90;;;;;;5054250;28;20199;-47
2021/12/30 04:09:48;;;;;;;26.80;5.93;;;8.00;99.90;;;;;;5064072;28;20199;-48
2021/12/30 04:12:15;;;;;;;25.47;7.40;;;8.00;99.90;;;;;;5061029;28;20699;-49
2021/12/30 04:14:42;;;;;;;21.43;5.90;;;8.00;99.90;;;;;;5063494;28;20218;-48
2021/12/30 04:17:09;;;;;;;26.53;6.07;;;7.90;99.90;;;;;;5062218;28;20209;-49
2021/12/30 04:19:36;;;;;;;17.53;5.63;;;7.90;99.90;;;;;;5048152;28;20211;-49
2021/12/30 04:22:04;;;;;;;19.57;5.87;;;7.90;99.90;;;;;;5063339;28;20726;-47
2021/12/30 04:24:31;;;;;;;22.83;5.47;;;7.90;99.90;;;;;;5056258;28;20198;-48
2021/12/30 04:26:57;;;;;;;25.83;6.17;;;7.90;99.90;;;;;;5055786;28;20667;-50
2021/12/30 04:29:25;;;;;;;17.63;5.50;;;7.90;99.90;;;;;;5061623;28;20190;-47
2021/12/30 04:31:51;;;;;;;23.67;5.27;;;7.90;99.90;;;;;;5063589;28;20226;-51
2021/12/30 04:34:18;;;;;;;18.33;5.13;;;7.80;99.90;;;;;;5060323;28;20224;-45
2021/12/30 04:36:45;;;;;;;25.17;5.30;;;7.80;99.90;;;;;;5048840;28;20203;-47
2021/12/30 04:39:13;;;;;;;20.20;5.17;;;7.80;99.90;;;;;;5053880;28;20210;-45
2021/12/30 04:41:40;;;;;;;29.00;5.17;;;7.80;99.90;;;;;;5063387;28;20219;-45
2021/12/30 04:44:06;;;;;;;25.77;4.90;;;7.70;99.90;;;;;;5060340;28;20203;-49
2021/12/30 04:46:36;;;;;;;18.87;4.97;;;7.70;99.90;;;;;;5062929;28;20203;-47
2021/12/30 04:49:04;;;;;;;22.40;5.13;;;7.70;99.90;;;;;;5061121;28;20206;-50
2021/12/30 04:51:30;;;;;;;17.10;5.27;;;7.70;99.90;;;;;;5048593;28;20214;-45
2021/12/30 04:53:57;;;;;;;20.80;4.97;;;7.70;99.90;;;;;;5060101;28;20218;-48
2021/12/30 04:56:25;;;;;;;23.73;5.10;;;7.60;99.90;;;;;;5057268;28;20198;-45
2021/12/30 04:58:52;;;;;;;19.70;5.23;;;7.60;99.90;;;;;;5062966;28;20203;-49
2021/12/30 05:01:19;;;;;;;25.93;6.20;;;7.60;99.90;;;;;;5059756;28;20205;-46
2021/12/30 05:03:45;;;;;;;22.33;4.70;;;7.60;99.90;;;;;;5063337;28;20606;-49
2021/12/30 05:06:12;;;;;;;21.13;5.00;;;7.60;99.90;;;;;;5058865;28;20294;-50
2021/12/30 05:08:38;;;;;;;17.73;4.67;;;7.60;99.90;;;;;;5049201;28;20214;-48
2021/12/30 05:11:05;;;;;;;29.97;5.67;;;7.60;99.90;;;;;;5054336;28;20675;-49
2021/12/30 05:13:33;;;;;;;19.73;5.03;;;7.60;99.90;;;;;;5062592;28;20221;-48
2021/12/30 05:16:00;;;;;;;24.50;5.83;;;7.60;99.90;;;;;;5060932;28;20217;-51
2021/12/30 05:18:31;;;;;;;23.13;5.70;;;7.60;99.90;;;;;;5061563;28;20197;-51
2021/12/30 05:20:59;;;;;;;25.47;6.73;;;7.60;99.90;;;;;;5061256;28;20210;-49
2021/12/30 05:23:25;;;;;;;24.17;5.70;;;7.60;99.90;;;;;;5047321;28;20305;-46
2021/12/30 05:25:52;;;;;;;31.63;6.87;;;7.60;99.90;;;;;;5057398;28;20210;-46
2021/12/30 05:28:19;;;;;;;32.63;7.00;;;7.60;99.90;;;;;;5059358;28;20198;-46
2021/12/30 05:30:47;;;;;;;22.57;6.17;;;7.60;99.90;;;;;;5063289;28;20624;-47
2021/12/30 05:33:15;;;;;;;32.47;7.23;;;7.60;99.90;;;;;;5058543;28;20218;-47
2021/12/30 05:35:42;;;;;;;26.57;7.73;;;7.60;99.90;;;;;;5062845;28;20215;-48
2021/12/30 05:38:09;;;;;;;29.13;8.27;;;7.60;99.90;;;;;;5046070;28;20256;-50
2021/12/30 05:40:36;;;;;;;28.40;7.90;;;7.60;99.90;;;;;;5055729;28;20203;-45
2021/12/30 05:43:04;;;;;;;26.07;8.43;;;7.60;99.90;;;;;;5060363;28;20581;-48
2021/12/30 05:45:30;;;;;;;40.73;9.53;;;7.70;99.90;;;;;;5061677;28;20202;-49
2021/12/30 05:47:58;;;;;;;22.43;8.60;;;7.70;99.90;;;;;;5061186;28;20211;-48
2021/12/30 05:50:31;;;;;;;37.67;10.70;;;7.70;99.90;;;;;;5060569;28;20206;-47
2021/12/30 05:52:58;;;;;;;29.87;10.63;;;7.70;99.90;;;;;;5061494;28;20233;-49
2021/12/30 05:55:25;;;;;;;33.67;11.43;;;7.70;99.90;;;;;;5046015;28;20698;-49
2021/12/30 05:57:54;;;;;;;49.27;12.93;;;7.80;99.90;;;;;;5054579;28;20203;-50
2021/12/30 06:00:22;;;;;;;39.83;11.70;;;7.80;99.90;;;;;;5062012;28;20217;-48
2021/12/30 06:02:49;;;;;;;42.77;13.20;;;7.80;99.90;;;;;;5060652;28;20234;-52
2021/12/30 06:05:17;;;;;;;34.77;12.60;;;7.80;99.90;;;;;;5061150;28;20988;-45
2021/12/30 06:07:44;;;;;;;39.17;12.93;;;7.80;99.90;;;;;;5054125;28;20202;-51
2021/12/30 06:10:11;;;;;;;40.93;13.77;;;7.80;99.90;;;;;;5045865;28;20209;-45
2021/12/30 06:12:39;;;;;;;48.10;13.37;;;7.80;99.90;;;;;;5063841;28;20710;-48
2021/12/30 06:15:06;;;;;;;44.97;15.30;;;7.90;99.90;;;;;;5057210;28;20218;-48
2021/12/30 06:17:33;;;;;;;44.43;14.03;;;7.90;99.90;;;;;;5065978;28;20198;-45
2021/12/30 06:20:00;;;;;;;44.07;13.53;;;7.90;99.90;;;;;;5062586;28;20208;-48
2021/12/30 06:22:28;;;;;;;48.37;14.80;;;7.90;99.90;;;;;;5066347;28;20226;-45
2021/12/30 06:24:55;;;;;;;35.43;11.33;;;8.00;99.90;;;;;;5062827;28;20203;-53
2021/12/30 06:27:21;;;;;;;53.10;14.37;;;8.00;99.90;;;;;;5044931;28;20198;-48
2021/12/30 06:29:48;;;;;;;43.20;11.37;;;8.00;99.90;;;;;;5056327;28;20186;-53
2021/12/30 06:32:15;;;;;;;37.03;11.50;;;8.00;99.90;;;;;;5065855;28;20215;-47
2021/12/30 06:34:41;;;;;;;40.10;12.27;;;8.00;99.90;;;;;;5062858;28;20741;-53
2021/12/30 06:37:08;;;;;;;29.67;10.13;;;8.00;99.90;;;;;;5065224;28;20198;-49
2021/12/30 06:39:36;;;;;;;36.33;11.23;;;8.00;99.90;;;;;;5063744;28;20572;-52
2021/12/30 06:42:03;;;;;;;36.50;11.70;;;8.10;99.90;;;;;;5048516;28;20231;-46
2021/12/30 06:44:30;;;;;;;45.77;12.13;;;8.10;99.90;;;;;;5057622;28;20206;-49
2021/12/30 06:46:59;;;;;;;43.90;11.17;;;8.10;99.90;;;;;;5061935;28;20201;-44
2021/12/30 06:49:27;;;;;;;45.93;12.67;;;8.10;99.90;;;;;;5065766;28;20218;-49
2021/12/30 06:51:54;;;;;;;51.73;12.73;;;8.10;99.90;;;;;;5054649;28;20247;-47
2021/12/30 06:54:20;;;;;;;32.87;10.23;;;8.10;99.90;;;;;;5065112;28;20218;-47
2021/12/30 06:56:54;;;;;;;41.63;13.83;;;8.10;99.90;;;;;;5055136;28;20277;-48
2021/12/30 06:59:21;;;;;;;42.40;12.13;;;8.10;99.90;;;;;;5045201;28;20221;-46
2021/12/30 07:01:47;;;;;;;36.77;11.40;;;8.10;99.90;;;;;;5060843;28;20958;-47
2021/12/30 07:04:14;;;;;;;48.83;12.20;;;8.10;99.90;;;;;;5065420;28;20202;-46
2021/12/30 07:06:41;;;;;;;49.20;12.87;;;8.20;99.90;;;;;;5062298;28;20213;-47
2021/12/30 07:09:08;;;;;;;53.97;13.70;;;8.10;99.90;;;;;;5063040;28;20240;-47
2021/12/30 07:11:34;;;;;;;41.23;13.70;;;8.20;99.90;;;;;;5061353;28;20244;-47
2021/12/30 07:14:02;;;;;;;38.57;12.40;;;8.20;99.90;;;;;;5046141;28;20206;-45
2021/12/30 07:16:29;;;;;;;47.40;14.17;;;8.20;99.90;;;;;;5059861;28;20199;-47
2021/12/30 07:18:56;;;;;;;52.30;14.00;;;8.20;99.90;;;;;;5062122;28;20187;-50
2021/12/30 07:21:23;;;;;;;42.77;13.63;;;8.20;99.90;;;;;;5065443;28;20205;-49
2021/12/30 07:23:49;;;;;;;45.37;12.53;;;8.20;99.90;;;;;;5060885;28;20203;-46
2021/12/30 07:26:16;;;;;;;45.97;14.27;;;8.20;99.90;;;;;;5064431;28;20182;-47
2021/12/30 07:28:43;;;;;;;55.17;13.00;;;8.20;99.90;;;;;;5047792;28;20206;-50
2021/12/30 07:31:11;;;;;;;47.73;12.40;;;8.20;99.90;;;;;;5059139;28;20278;-48
2021/12/30 07:33:38;;;;;;;40.93;13.80;;;8.20;99.90;;;;;;5062848;28;20223;-50
2021/12/30 07:36:05;;;;;;;36.27;13.20;;;8.30;99.90;;;;;;5060676;28;20358;-46
2021/12/30 07:38:32;;;;;;;49.53;13.83;;;8.30;99.90;;;;;;5045043;28;20565;-49
2021/12/30 07:40:58;;;;;;;31.27;10.80;;;8.30;99.90;;;;;;5061616;28;20194;-52
2021/12/30 07:43:25;;;;;;;38.17;13.70;;;8.30;99.90;;;;;;5065334;28;20214;-46
2021/12/30 07:45:52;;;;;;;39.77;13.30;;;8.30;99.90;;;;;;5023569;28;20834;-49
2021/12/30 07:48:20;;;;;;;64.00;17.73;;;8.30;99.90;;;;;;5064046;28;20202;-46
2021/12/30 07:50:47;;;;;;;49.50;15.50;;;8.30;99.90;;;;;;5059915;28;20199;-47
2021/12/30 07:53:13;;;;;;;43.00;14.27;;;8.30;99.90;;;;;;5063659;28;20219;-47
2021/12/30 07:55:40;;;;;;;55.90;15.97;;;8.40;99.90;;;;;;5061219;28;20214;-49
2021/12/30 07:58:07;;;;;;;40.63;14.23;;;8.40;99.90;;;;;;5062489;28;20218;-49
2021/12/30 08:00:33;;;;;;;40.50;13.60;;;8.40;99.90;;;;;;5046877;28;20207;-46
2021/12/30 08:03:00;;;;;;;45.87;14.33;;;8.40;99.90;;;;;;5050360;28;20233;-47
2021/12/30 08:05:29;;;;;;;43.93;14.97;;;8.40;99.90;;;;;;5060203;28;20198;-46
2021/12/30 08:07:57;;;;;;;41.40;14.20;;;8.50;99.90;;;;;;5057486;28;20187;-48
2021/12/30 08:10:24;;;;;;;55.37;15.67;;;8.50;99.90;;;;;;5057659;28;20408;-48
2021/12/30 08:12:52;;;;;;;66.60;17.50;;;8.50;99.90;;;;;;5051677;28;20255;-45
2021/12/30 08:15:19;;;;;;;41.23;13.37;;;8.50;99.90;;;;;;5045600;28;20221;-47
2021/12/30 08:17:48;;;;;;;67.13;18.60;;;8.60;99.90;;;;;;5045253;28;20198;-45
2021/12/30 08:20:16;;;;;;;63.47;18.50;;;8.60;99.90;;;;;;5056426;28;20275;-46
2021/12/30 08:22:45;;;;;;;47.37;15.07;;;8.60;99.90;;;;;;5056938;28;20218;-46
2021/12/30 08:25:13;;;;;;;40.70;15.33;;;8.60;99.90;;;;;;5055541;28;20209;-47
2021/12/30 08:27:40;;;;;;;52.33;15.83;;;8.70;99.90;;;;;;5055311;28;20205;-47
2021/12/30 08:30:10;;;;;;;64.07;15.67;;;8.70;99.90;;;;;;5062567;28;20214;-47
2021/12/30 08:32:37;;;;;;;49.20;16.33;;;8.70;99.90;;;;;;5042736;28;20241;-47
2021/12/30 08:35:04;;;;;;;48.43;15.00;;;8.70;99.90;;;;;;5059888;28;20210;-48
2021/12/30 08:37:33;;;;;;;53.23;16.00;;;8.70;99.90;;;;;;5061094;28;20202;-49
2021/12/30 08:40:02;;;;;;;67.87;18.50;;;8.70;99.90;;;;;;5056507;28;20207;-45
2021/12/30 08:42:30;;;;;;;77.27;19.90;;;8.80;99.90;;;;;;5062284;28;20249;-50
2021/12/30 08:44:58;;;;;;;53.67;16.27;;;8.80;99.90;;;;;;5061319;28;20198;-46
2021/12/30 08:47:26;;;;;;;75.70;18.07;;;8.80;99.90;;;;;;5048578;28;20683;-48
2021/12/30 08:49:53;;;;;;;58.57;15.07;;;8.80;99.90;;;;;;5055404;28;20191;-46
2021/12/30 08:52:23;;;;;;;49.60;15.50;;;8.90;99.90;;;;;;5063444;28;20235;-48
2021/12/30 08:54:51;;;;;;;56.30;17.00;;;8.90;99.90;;;;;;5058965;28;20186;-48
2021/12/30 08:57:21;;;;;;;58.90;15.33;;;8.90;99.90;;;;;;5056825;28;20207;-50
2021/12/30 08:59:48;;;;;;;71.23;19.20;;;8.90;99.90;;;;;;5057286;28;20186;-47
2021/12/30 09:02:15;;;;;;;77.80;19.97;;;8.90;99.90;;;;;;5047862;28;20222;-47
2021/12/30 09:04:45;;;;;;;58.23;17.00;;;8.90;99.90;;;;;;5052654;28;20221;-47
2021/12/30 09:07:13;;;;;;;55.40;16.37;;;8.70;99.90;;;;;;5061569;28;20209;-46
2021/12/30 09:09:40;;;;;;;58.07;17.40;;;9.00;99.90;;;;;;5053621;28;20194;-46
2021/12/30 09:12:08;;;;;;;59.23;18.87;;;9.00;99.90;;;;;;5056784;28;20226;-48
2021/12/30 09:14:36;;;;;;;61.77;19.40;;;9.00;99.90;;;;;;5050961;28;20199;-47
2021/12/30 09:17:03;;;;;;;62.97;19.63;;;9.00;99.90;;;;;;5046721;28;20215;-47
2021/12/30 09:19:30;;;;;;;57.70;17.90;;;9.10;99.90;;;;;;5057793;28;20199;-50
2021/12/30 09:21:57;;;;;;;56.60;17.63;;;9.10;99.90;;;;;;5056044;28;20211;-48
2021/12/30 09:24:24;;;;;;;38.23;16.57;;;8.90;99.90;;;;;;5062349;28;20222;-49
2021/12/30 09:26:50;;;;;;;61.83;17.43;;;9.00;99.90;;;;;;5051405;28;20210;-46
2021/12/30 09:29:17;;;;;;;74.63;19.73;;;9.00;99.90;;;;;;5063318;28;20198;-45
2021/12/30 09:31:49;;;;;;;68.83;19.80;;;9.00;99.90;;;;;;5054221;28;20222;-46
2021/12/30 09:34:16;;;;;;;58.63;20.27;;;9.00;99.90;;;;;;5045131;28;20206;-45
2021/12/30 09:36:43;;;;;;;50.93;16.37;;;9.00;99.90;;;;;;5049035;28;20226;-45
2021/12/30 09:39:12;;;;;;;50.60;18.60;;;8.80;99.90;;;;;;5054624;28;20213;-46
2021/12/30 09:41:39;;;;;;;77.23;22.67;;;9.00;99.90;;;;;;5052845;28;20648;-49
2021/12/30 09:44:07;;;;;;;69.33;21.07;;;9.00;99.90;;;;;;5055443;28;20217;-50
2021/12/30 09:46:34;;;;;;;65.70;21.67;;;9.10;99.90;;;;;;5051839;28;20198;-49
2021/12/30 09:49:04;;;;;;;60.63;19.47;;;9.30;99.90;;;;;;5044291;28;20224;-49
2021/12/30 09:51:31;;;;;;;63.00;19.63;;;9.10;99.90;;;;;;5052292;28;20210;-50
2021/12/30 09:53:58;;;;;;;47.83;18.17;;;9.20;99.90;;;;;;5062168;28;20194;-48
2021/12/30 09:56:25;;;;;;;69.73;19.50;;;9.10;99.90;;;;;;5062549;28;20219;-50
2021/12/30 09:58:52;;;;;;;63.93;19.73;;;9.00;99.90;;;;;;5060959;28;20217;-45
2021/12/30 10:01:18;;;;;;;60.80;20.87;;;9.10;99.90;;;;;;5058079;28;20202;-46
2021/12/30 10:03:46;;;;;;;58.60;19.57;;;9.10;99.90;;;;;;5056324;28;20881;-49
2021/12/30 10:06:16;;;;;;;71.57;21.90;;;9.20;99.90;;;;;;5050996;28;20218;-46
2021/12/30 10:08:53;;;;;;;71.97;24.77;;;9.20;99.90;;;;;;5056581;28;20194;-44
2021/12/30 10:11:20;;;;;;;57.40;20.57;;;9.20;99.90;;;;;;5062704;28;20289;-45
2021/12/30 10:13:51;;;;;;;87.23;25.10;;;9.20;99.90;;;;;;5061846;28;20820;-48
2021/12/30 10:16:18;;;;;;;78.93;23.13;;;9.30;99.90;;;;;;5059270;28;20218;-46
2021/12/30 10:18:47;;;;;;;85.37;24.37;;;9.30;99.90;;;;;;5056322;28;21103;-46
2021/12/30 10:21:18;;;;;;;76.77;24.37;;;9.30;99.90;;;;;;5050736;28;20219;-45
2021/12/30 10:23:47;;;;;;;83.00;25.37;;;9.30;99.90;;;;;;5053879;28;20887;-45
2021/12/30 10:26:14;;;;;;;65.70;22.07;;;9.30;99.90;;;;;;5065601;28;20884;-45
2021/12/30 10:28:43;;;;;;;54.67;21.70;;;9.30;99.90;;;;;;5064039;28;20195;-46
2021/12/30 10:31:22;;;;;;;60.80;21.13;;;9.30;99.90;;;;;;5061705;28;20199;-48
2021/12/30 10:33:52;;;;;;;76.53;24.67;;;9.40;99.90;;;;;;5064984;28;20190;-45
2021/12/30 10:36:22;;;;;;;66.10;21.80;;;9.40;99.90;;;;;;5062577;28;20214;-49
2021/12/30 10:38:49;;;;;;;71.10;22.33;;;9.40;99.90;;;;;;5040504;28;20199;-47
2021/12/30 10:41:16;;;;;;;53.70;19.13;;;9.40;99.90;;;;;;5060998;28;20194;-44
2021/12/30 10:43:47;;;;;;;42.13;17.23;;;9.50;99.90;;;;;;5061635;28;20211;-47
2021/12/30 10:46:18;;;;;;;56.90;19.93;;;9.40;99.90;;;;;;5068648;28;20244;-50
2021/12/30 10:48:51;;;;;;;52.50;19.23;;;9.50;99.90;;;;;;5058968;28;20221;-46
2021/12/30 10:51:20;;;;;;;40.93;15.97;;;9.60;99.90;;;;;;5066544;28;20190;-46
2021/12/30 10:53:47;;;;;;;67.47;21.73;;;9.60;99.90;;;;;;5044431;28;20210;-46
2021/12/30 10:56:36;;;;;;;54.50;18.17;;;9.60;99.90;;;;;;5068755;28;20222;-46
2021/12/30 10:59:21;;;;;;;51.10;17.33;;;9.60;99.90;;;;;;5058328;28;20225;-48
2021/12/30 11:01:54;;;;;;;36.70;15.80;;;9.70;99.90;;;;;;5058894;28;20222;-44
2021/12/30 11:04:22;;;;;;;54.30;18.47;;;9.70;99.90;;;;;;5056336;28;20245;-44
2021/12/30 11:06:55;;;;;;;50.37;17.10;;;9.80;99.90;;;;;;5039204;28;20213;-52
2021/12/30 11:09:22;;;;;;;80.20;23.07;;;9.80;99.90;;;;;;5056697;28;20548;-45
2021/12/30 11:11:52;;;;;;;53.03;15.63;;;9.80;99.90;;;;;;5048894;28;20226;-42
2021/12/30 11:14:21;;;;;;;36.20;15.00;;;9.80;99.90;;;;;;5062367;28;20205;-44
2021/12/30 11:17:04;;;;;;;27.07;12.03;;;9.90;99.90;;;;;;5055439;28;20694;-48
2021/12/30 11:19:32;;;;;;;51.93;14.77;;;9.90;99.90;;;;;;5060016;28;20205;-47
2021/12/30 11:22:01;;;;;;;51.20;16.07;;;10.00;99.90;;;;;;5047839;28;20236;-45
2021/12/30 11:24:30;;;;;;;28.00;10.53;;;10.00;99.90;;;;;;5058963;28;20202;-46
2021/12/30 11:26:57;;;;;;;36.77;14.53;;;10.10;99.90;;;;;;5055491;28;20191;-44
2021/12/30 11:29:26;;;;;;;34.73;11.47;;;;;;;;;;5064857;28;20214;-48
2021/12/30 11:31:53;;;;;;;30.17;11.43;;;10.20;99.90;;;;;;5061276;28;20225;-45
2021/12/30 11:34:22;;;;;;;22.13;10.07;;;10.20;99.90;;;;;;5037447;28;20298;-47
2021/12/30 11:36:49;;;;;;;23.07;9.47;;;10.20;99.90;;;;;;5060107;28;20730;-50
2021/12/30 11:39:19;;;;;;;29.37;12.53;;;10.30;99.90;;;;;;5036104;28;20659;-45
2021/12/30 11:41:55;;;;;;;16.43;8.93;;;10.30;99.90;;;;;;5049734;28;20214;-48
2021/12/30 11:44:33;;;;;;;20.33;9.87;;;10.40;99.90;;;;;;5062933;28;20202;-46
2021/12/30 11:47:02;;;;;;;19.20;8.00;;;10.40;99.90;;;;;;5054052;28;20201;-46
2021/12/30 11:49:54;;;;;;;12.63;6.70;;;10.40;99.90;;;;;;5056540;28;20663;-43
2021/12/30 11:52:56;;;;;;;11.30;5.83;;;10.50;99.90;;;;;;5063940;28;20219;-42
2021/12/30 11:55:44;;;;;;;14.00;6.37;;;10.50;99.90;;;;;;4973073;28;20205;-43
2021/12/30 11:58:51;;;;;;;13.63;6.30;;;10.60;99.90;;;;;;5047142;28;20210;-48
2021/12/30 12:01:42;;;;;;;21.63;8.30;;;10.60;99.90;;;;;;4958936;28;20818;-47
2021/12/30 12:04:17;;;;;;;9.63;6.47;;;10.60;99.90;;;;;;5061422;28;20222;-43
2021/12/30 12:06:57;;;;;;;12.33;6.57;;;10.70;99.90;;;;;;5046522;28;20206;-46
2021/12/30 12:09:42;;;;;;;9.77;6.77;;;10.70;99.90;;;;;;5062863;28;20566;-46
2021/12/30 12:12:13;;;;;;;14.93;7.10;;;10.70;99.90;;;;;;5052523;28;20227;-44
2021/12/30 12:14:44;;;;;;;10.57;6.40;;;10.70;99.90;;;;;;5056485;28;20202;-46
2021/12/30 12:17:17;;;;;;;11.50;7.13;;;10.70;99.90;;;;;;5062784;28;20219;-49
2021/12/30 12:19:45;;;;;;;8.77;6.53;;;10.80;99.90;;;;;;5061653;28;20195;-58
2021/12/30 12:22:29;;;;;;;13.23;6.47;;;10.90;99.90;;;;;;5055618;28;20234;-50
2021/12/30 12:25:09;;;;;;;10.10;5.47;;;10.90;99.90;;;;;;5046689;28;20213;-56
2021/12/30 12:27:38;;;;;;;7.97;5.60;;;10.90;99.90;;;;;;5055416;28;20206;-52
2021/12/30 12:30:07;;;;;;;11.77;6.37;;;11.00;99.90;;;;;;5055385;28;20194;-50
2021/12/30 12:32:39;;;;;;;7.87;5.57;;;11.00;99.90;;;;;;5061382;28;20211;-54
2021/12/30 12:35:24;;;;;;;8.77;6.03;;;11.10;99.90;;;;;;5060802;28;20202;-47
2021/12/30 12:37:56;;;;;;;9.07;5.20;;;11.10;99.90;;;;;;5046510;28;20219;-55
2021/12/30 12:40:29;;;;;;;7.27;4.70;;;11.10;99.90;;;;;;5058132;28;20813;-52
2021/12/30 12:43:12;;;;;;;6.23;4.40;;;11.10;99.90;;;;;;5040931;28;20218;-55
2021/12/30 12:45:44;;;;;;;5.90;4.37;;;11.20;99.90;;;;;;5055252;28;20223;-58